createdAt,value
2018-08-19T00:01:14.458Z,16.94
2018-08-19T00:03:50.382Z,16.95
2018-08-19T00:06:26.237Z,17.04
2018-08-19T00:09:07.075Z,16.87
2018-08-19T00:11:44.058Z,16.46
2018-08-19T00:14:29.750Z,16.41
2018-08-19T00:17:06.266Z,16.64
2018-08-19T00:19:42.438Z,16.84
2018-08-19T00:22:18.341Z,16.99
2018-08-19T00:24:54.288Z,16.99
2018-08-19T00:27:30.049Z,17.00
2018-08-19T00:30:10.400Z,16.87
2018-08-19T00:32:46.254Z,16.56
2018-08-19T00:35:22.575Z,16.49
2018-08-19T00:37:58.834Z,16.54
2018-08-19T00:40:34.797Z,16.30
2018-08-19T00:43:10.576Z,16.26
2018-08-19T00:45:46.768Z,16.21
2018-08-19T00:48:22.537Z,15.93
2018-08-19T00:50:58.503Z,15.79
2018-08-19T00:53:34.408Z,15.87
2018-08-19T00:56:10.223Z,15.93
2018-08-19T00:58:46.018Z,15.91
2018-08-19T01:01:33.169Z,15.63
2018-08-19T01:04:10.391Z,15.55
2018-08-19T01:06:52.071Z,15.46
2018-08-19T01:09:30.729Z,15.54
2018-08-19T01:12:06.793Z,15.51
2018-08-19T01:14:42.757Z,15.44
2018-08-19T01:17:19.579Z,15.57
2018-08-19T01:19:59.327Z,15.63
2018-08-19T01:22:36.735Z,15.83
2018-08-19T01:25:14.485Z,16.01
2018-08-19T01:27:50.763Z,16.04
2018-08-19T01:30:27.279Z,16.05
2018-08-19T01:33:03.359Z,15.71
2018-08-19T01:35:40.937Z,15.53
2018-08-19T01:38:16.705Z,15.11
2018-08-19T01:40:52.412Z,14.78
2018-08-19T01:43:28.164Z,14.62
2018-08-19T01:46:03.936Z,14.45
2018-08-19T01:48:39.656Z,14.54
2018-08-19T01:51:15.361Z,14.56
2018-08-19T01:53:51.142Z,14.43
2018-08-19T01:56:26.777Z,14.68
2018-08-19T01:59:02.598Z,14.41
2018-08-19T02:01:52.048Z,14.28
2018-08-19T02:04:28.080Z,14.36
2018-08-19T02:07:04.064Z,14.08
2018-08-19T02:09:53.537Z,14.12
2018-08-19T02:12:38.438Z,14.17
2018-08-19T02:15:14.328Z,14.07
2018-08-19T02:18:11.827Z,14.12
2018-08-19T02:20:47.826Z,14.07
2018-08-19T02:23:23.869Z,14.05
2018-08-19T02:25:59.730Z,14.15
2018-08-19T02:28:35.680Z,14.11
2018-08-19T02:31:11.553Z,14.20
2018-08-19T02:33:47.165Z,13.86
2018-08-19T02:36:23.124Z,13.74
2018-08-19T02:38:59.016Z,13.89
2018-08-19T02:41:34.961Z,13.82
2018-08-19T02:44:10.697Z,13.83
2018-08-19T02:46:46.881Z,13.66
2018-08-19T02:49:22.719Z,13.86
2018-08-19T02:51:58.759Z,14.00
2018-08-19T02:54:34.690Z,13.90
2018-08-19T02:57:10.563Z,13.77
2018-08-19T02:59:46.517Z,13.68
2018-08-19T03:02:39.764Z,13.36
2018-08-19T03:05:16.009Z,13.17
2018-08-19T03:07:54.379Z,13.12
2018-08-19T03:10:30.814Z,13.12
2018-08-19T03:13:07.043Z,13.06
2018-08-19T03:15:42.912Z,13.19
2018-08-19T03:18:18.781Z,13.33
2018-08-19T03:20:54.637Z,13.05
2018-08-19T03:23:30.479Z,13.17
2018-08-19T03:26:06.656Z,13.04
2018-08-19T03:28:42.442Z,13.01
2018-08-19T03:31:18.190Z,12.78
2018-08-19T03:33:54.173Z,12.54
2018-08-19T03:36:29.951Z,12.59
2018-08-19T03:39:15.561Z,12.68
2018-08-19T03:41:51.167Z,12.79
2018-08-19T03:44:27.061Z,12.86
2018-08-19T03:47:05.774Z,12.93
2018-08-19T03:49:53.692Z,13.09
2018-08-19T03:52:29.589Z,13.57
2018-08-19T03:55:07.718Z,13.55
2018-08-19T03:57:43.675Z,13.27
2018-08-19T04:00:20.220Z,13.16
2018-08-19T04:02:56.029Z,12.69
2018-08-19T04:05:46.471Z,12.48
2018-08-19T04:08:23.158Z,12.19
2018-08-19T04:10:59.037Z,12.33
2018-08-19T04:13:38.175Z,12.47
2018-08-19T04:16:13.944Z,12.74
2018-08-19T04:18:49.744Z,13.00
2018-08-19T04:21:25.822Z,13.16
2018-08-19T04:24:01.462Z,13.46
2018-08-19T04:26:37.197Z,13.54
2018-08-19T04:29:17.052Z,13.56
2018-08-19T04:31:52.992Z,13.28
2018-08-19T04:34:28.879Z,13.30
2018-08-19T04:37:04.868Z,13.51
2018-08-19T04:39:40.507Z,13.66
2018-08-19T04:42:16.507Z,13.87
2018-08-19T04:44:52.917Z,14.24
2018-08-19T04:47:31.459Z,14.77
2018-08-19T04:50:07.309Z,15.05
2018-08-19T04:52:43.233Z,15.44
2018-08-19T04:55:19.108Z,15.81
2018-08-19T04:57:54.852Z,16.10
2018-08-19T05:00:31.813Z,16.32
2018-08-19T05:03:08.177Z,16.67
2018-08-19T05:05:43.908Z,16.73
2018-08-19T05:08:19.820Z,17.02
2018-08-19T05:10:55.693Z,17.24
2018-08-19T05:13:32.155Z,17.40
2018-08-19T05:16:08.015Z,17.57
2018-08-19T05:18:53.057Z,17.35
2018-08-19T05:21:28.932Z,17.05
2018-08-19T05:24:04.790Z,17.19
2018-08-19T05:26:40.578Z,17.28
2018-08-19T05:29:16.639Z,17.49
2018-08-19T05:31:56.333Z,17.71
2018-08-19T05:34:33.219Z,18.11
2018-08-19T05:37:08.852Z,18.52
2018-08-19T05:39:49.899Z,18.54
2018-08-19T05:42:25.752Z,18.27
2018-08-19T05:45:01.502Z,18.20
2018-08-19T05:47:37.451Z,18.34
2018-08-19T05:50:13.262Z,18.90
2018-08-19T05:52:49.208Z,19.35
2018-08-19T05:55:25.223Z,19.62
2018-08-19T05:58:01.233Z,19.98
2018-08-19T06:00:40.463Z,20.39
2018-08-19T06:03:16.099Z,20.34
2018-08-19T06:05:51.984Z,20.49
2018-08-19T06:08:27.842Z,20.23
2018-08-19T06:11:03.945Z,20.36
2018-08-19T06:13:39.752Z,20.52
2018-08-19T06:16:15.707Z,20.99
2018-08-19T06:18:54.031Z,20.94
2018-08-19T06:21:29.790Z,20.61
2018-08-19T06:24:05.549Z,20.78
2018-08-19T06:26:41.603Z,21.10
2018-08-19T06:29:17.336Z,21.20
2018-08-19T06:31:53.118Z,21.42
2018-08-19T06:34:29.012Z,21.89
2018-08-19T06:37:04.956Z,22.50
2018-08-19T06:39:40.844Z,22.63
2018-08-19T06:42:16.862Z,22.66
2018-08-19T06:44:52.745Z,22.62
2018-08-19T06:47:28.580Z,22.64
2018-08-19T06:50:12.205Z,22.43
2018-08-19T06:52:46.746Z,22.77
2018-08-19T06:55:18.245Z,22.92
2018-08-19T06:57:49.629Z,23.38
2018-08-19T07:00:28.557Z,23.34
2018-08-19T07:03:02.910Z,23.57
2018-08-19T07:05:34.989Z,24.00
2018-08-19T07:08:05.891Z,24.54
2018-08-19T07:10:38.264Z,24.72
2018-08-19T07:13:21.346Z,24.54
2018-08-19T07:15:52.138Z,24.65
2018-08-19T07:18:23.758Z,24.40
2018-08-19T07:20:54.552Z,24.69
2018-08-19T07:23:25.364Z,24.97
2018-08-19T07:25:56.182Z,25.42
2018-08-19T07:28:27.046Z,25.46
2018-08-19T07:30:57.848Z,25.38
2018-08-19T07:33:28.643Z,25.64
2018-08-19T07:35:59.485Z,25.13
2018-08-19T07:38:30.292Z,25.21
2018-08-19T07:41:01.772Z,24.99
2018-08-19T07:43:32.631Z,25.26
2018-08-19T07:46:03.403Z,25.64
2018-08-19T07:48:34.216Z,25.62
2018-08-19T07:51:05.069Z,25.92
2018-08-19T07:53:35.872Z,26.06
2018-08-19T07:56:07.052Z,25.86
2018-08-19T07:58:41.872Z,26.26
2018-08-19T08:01:12.622Z,26.49
2018-08-19T08:03:43.443Z,26.83
2018-08-19T08:06:14.612Z,27.24
2018-08-19T08:08:45.475Z,27.47
2018-08-19T08:11:16.266Z,27.45
2018-08-19T08:13:47.439Z,27.03
2018-08-19T08:16:18.423Z,27.17
2018-08-19T08:18:49.229Z,27.42
2018-08-19T08:21:20.075Z,27.81
2018-08-19T08:23:51.088Z,28.01
2018-08-19T08:26:21.980Z,28.28
2018-08-19T08:28:57.983Z,28.23
2018-08-19T08:31:28.862Z,27.82
2018-08-19T08:33:59.653Z,27.53
2018-08-19T08:36:30.432Z,28.15
2018-08-19T08:39:01.421Z,28.23
2018-08-19T08:41:32.297Z,28.83
2018-08-19T08:44:03.589Z,29.20
2018-08-19T08:46:34.509Z,29.43
2018-08-19T08:49:05.714Z,29.70
2018-08-19T08:51:36.523Z,30.17
2018-08-19T08:54:07.426Z,29.41
2018-08-19T08:56:41.138Z,28.55
2018-08-19T08:59:12.175Z,28.78
2018-08-19T09:01:42.961Z,28.65
2018-08-19T09:04:13.753Z,28.88
2018-08-19T09:06:44.544Z,28.67
2018-08-19T09:09:15.452Z,28.52
2018-08-19T09:11:46.680Z,28.58
2018-08-19T09:14:17.823Z,28.59
2018-08-19T09:16:48.629Z,28.56
2018-08-19T09:19:19.457Z,29.28
2018-08-19T09:21:53.603Z,29.89
2018-08-19T09:24:24.486Z,29.61
2018-08-19T09:26:55.377Z,29.13
2018-08-19T09:29:27.993Z,28.71
2018-08-19T09:31:58.831Z,29.00
2018-08-19T09:34:30.264Z,29.70
2018-08-19T09:37:01.757Z,30.01
2018-08-19T09:39:32.687Z,29.84
2018-08-19T09:42:08.320Z,30.42
2018-08-19T09:44:39.506Z,30.40
2018-08-19T09:47:10.465Z,29.82
2018-08-19T09:49:53.339Z,28.93
2018-08-19T09:52:24.092Z,28.35
2018-08-19T09:54:59.886Z,28.62
2018-08-19T09:57:30.782Z,28.57
2018-08-19T10:00:02.145Z,28.60
2018-08-19T10:02:37.697Z,28.25
2018-08-19T10:05:12.916Z,28.06
2018-08-19T10:07:43.709Z,27.99
2018-08-19T10:10:14.740Z,27.66
2018-08-19T10:12:45.865Z,28.43
2018-08-19T10:15:18.060Z,28.92
2018-08-19T10:17:48.956Z,29.02
2018-08-19T10:20:20.059Z,28.92
2018-08-19T10:22:53.467Z,29.20
2018-08-19T10:25:24.444Z,28.74
2018-08-19T10:27:56.581Z,28.38
2018-08-19T10:30:27.436Z,28.10
2018-08-19T10:33:04.631Z,28.11
2018-08-19T10:35:36.198Z,27.80
2018-08-19T10:38:06.990Z,27.71
2018-08-19T10:40:37.970Z,27.76
2018-08-19T10:43:10.453Z,27.86
2018-08-19T10:45:42.527Z,28.20
2018-08-19T10:48:14.582Z,28.19
2018-08-19T10:50:45.548Z,28.15
2018-08-19T10:53:21.774Z,28.38
2018-08-19T10:55:52.996Z,28.50
2018-08-19T10:58:24.220Z,28.54
2018-08-19T11:00:55.374Z,28.53
2018-08-19T11:03:27.042Z,28.55
2018-08-19T11:05:57.911Z,28.42
2018-08-19T11:08:28.763Z,28.61
2018-08-19T11:11:00.317Z,28.72
2018-08-19T11:13:32.328Z,28.74
2018-08-19T11:16:13.252Z,28.76
2018-08-19T11:18:45.340Z,28.67
2018-08-19T11:21:25.489Z,28.44
2018-08-19T11:23:57.327Z,28.20
2018-08-19T11:26:29.010Z,28.39
2018-08-19T11:29:00.784Z,28.34
2018-08-19T11:31:33.333Z,28.64
2018-08-19T11:34:07.617Z,28.76
2018-08-19T11:36:43.555Z,28.90
2018-08-19T11:39:15.898Z,29.02
2018-08-19T11:41:46.718Z,29.31
2018-08-19T11:44:18.211Z,29.61
2018-08-19T11:46:49.298Z,29.67
2018-08-19T11:49:20.759Z,29.76
2018-08-19T11:51:53.919Z,29.70
2018-08-19T11:54:26.643Z,29.44
2018-08-19T11:57:04.773Z,29.47
2018-08-19T11:59:44.692Z,29.16
2018-08-19T12:02:18.877Z,29.09
2018-08-19T12:04:49.815Z,29.01
2018-08-19T12:07:23.779Z,28.82
2018-08-19T12:10:01.384Z,27.63
2018-08-19T12:12:46.796Z,26.95
2018-08-19T12:15:17.834Z,26.25
2018-08-19T12:17:48.743Z,25.77
2018-08-19T12:20:28.392Z,25.59
2018-08-19T12:22:59.298Z,25.55
2018-08-19T12:25:30.305Z,25.34
2018-08-19T12:28:01.125Z,25.17
2018-08-19T12:30:32.755Z,25.05
2018-08-19T12:33:14.382Z,25.14
2018-08-19T12:35:45.161Z,25.22
2018-08-19T12:38:16.016Z,24.87
2018-08-19T12:40:48.717Z,24.92
2018-08-19T12:43:19.646Z,25.11
2018-08-19T12:45:50.585Z,25.25
2018-08-19T12:48:21.416Z,25.38
2018-08-19T12:50:59.212Z,25.64
2018-08-19T12:53:30.241Z,25.90
2018-08-19T12:56:03.639Z,26.46
2018-08-19T12:58:34.461Z,26.67
2018-08-19T13:01:05.249Z,26.82
2018-08-19T13:03:36.069Z,26.91
2018-08-19T13:06:08.057Z,26.95
2018-08-19T13:08:38.899Z,27.13
2018-08-19T13:11:10.094Z,27.15
2018-08-19T13:13:40.956Z,27.11
2018-08-19T13:16:11.751Z,26.95
2018-08-19T13:18:42.916Z,26.99
2018-08-19T13:21:16.618Z,26.99
2018-08-19T13:23:47.512Z,27.29
2018-08-19T13:26:18.342Z,27.49
2018-08-19T13:28:54.817Z,27.79
2018-08-19T13:31:29.688Z,28.26
2018-08-19T13:34:00.518Z,28.63
2018-08-19T13:36:31.623Z,28.82
2018-08-19T13:39:02.716Z,28.77
2018-08-19T13:41:33.602Z,28.86
2018-08-19T13:44:04.557Z,28.88
2018-08-19T13:46:35.477Z,28.87
2018-08-19T13:49:06.445Z,28.79
2018-08-19T13:51:37.237Z,28.99
2018-08-19T13:54:08.227Z,29.60
2018-08-19T13:56:39.315Z,30.08
2018-08-19T13:59:10.144Z,30.65
2018-08-19T14:01:40.946Z,31.95
2018-08-19T14:04:11.860Z,32.60
2018-08-19T14:06:44.277Z,33.64
2018-08-19T14:09:15.533Z,33.82
2018-08-19T14:11:46.708Z,34.58
2018-08-19T14:14:17.515Z,35.48
2018-08-19T14:16:48.287Z,35.55
2018-08-19T14:19:19.113Z,35.54
2018-08-19T14:21:49.881Z,35.69
2018-08-19T14:24:20.703Z,36.76
2018-08-19T14:26:51.470Z,36.13
2018-08-19T14:29:22.462Z,36.66
2018-08-19T14:31:53.258Z,37.50
2018-08-19T14:34:24.126Z,37.38
2018-08-19T14:36:54.965Z,37.55
2018-08-19T14:39:26.023Z,38.12
2018-08-19T14:41:56.794Z,37.10
2018-08-19T14:44:27.617Z,35.94
2018-08-19T14:46:58.386Z,33.98
2018-08-19T14:49:29.210Z,31.73
2018-08-19T14:52:02.332Z,30.62
2018-08-19T14:54:33.288Z,30.14
2018-08-19T14:57:04.173Z,29.22
2018-08-19T14:59:35.000Z,28.80
2018-08-19T15:02:05.829Z,28.51
2018-08-19T15:04:36.816Z,28.70
2018-08-19T15:07:07.642Z,28.90
2018-08-19T15:09:38.545Z,28.64
2018-08-19T15:12:15.851Z,28.57
2018-08-19T15:14:46.717Z,28.51
2018-08-19T15:17:17.534Z,28.33
2018-08-19T15:19:50.400Z,28.37
2018-08-19T15:22:21.783Z,28.42
2018-08-19T15:24:52.988Z,28.11
2018-08-19T15:27:30.762Z,28.08
2018-08-19T15:30:02.283Z,28.02
2018-08-19T15:32:33.435Z,27.95
2018-08-19T15:35:04.619Z,27.84
2018-08-19T15:37:35.447Z,27.33
2018-08-19T15:40:06.540Z,27.41
2018-08-19T15:42:37.735Z,27.31
2018-08-19T15:45:09.230Z,27.26
2018-08-19T15:47:41.017Z,27.31
2018-08-19T15:50:17.992Z,27.30
2018-08-19T15:52:49.691Z,27.40
2018-08-19T15:55:20.799Z,27.31
2018-08-19T15:57:52.406Z,27.18
2018-08-19T16:00:23.338Z,27.20
2018-08-19T16:02:55.442Z,27.27
2018-08-19T16:05:26.838Z,27.20
2018-08-19T16:07:57.690Z,27.29
2018-08-19T16:10:28.555Z,27.01
2018-08-19T16:12:59.475Z,26.76
2018-08-19T16:15:30.335Z,26.74
2018-08-19T16:18:01.324Z,26.79
2018-08-19T16:20:32.161Z,26.77
2018-08-19T16:23:02.997Z,26.73
2018-08-19T16:25:33.933Z,26.59
2018-08-19T16:28:04.809Z,26.37
2018-08-19T16:30:35.817Z,26.38
2018-08-19T16:33:06.614Z,26.13
2018-08-19T16:35:37.455Z,25.83
2018-08-19T16:38:08.251Z,25.82
2018-08-19T16:40:39.223Z,25.83
2018-08-19T16:43:10.049Z,25.90
2018-08-19T16:45:41.055Z,25.78
2018-08-19T16:48:12.310Z,25.72
2018-08-19T16:50:43.285Z,25.63
2018-08-19T16:53:14.228Z,25.55
2018-08-19T16:55:45.561Z,25.48
2018-08-19T16:58:16.362Z,25.35
2018-08-19T17:00:47.206Z,25.33
2018-08-19T17:03:31.583Z,25.27
2018-08-19T17:06:03.730Z,25.16
2018-08-19T17:08:34.547Z,25.08
2018-08-19T17:11:06.184Z,24.82
2018-08-19T17:13:37.011Z,24.57
2018-08-19T17:16:11.250Z,24.39
2018-08-19T17:18:42.088Z,24.34
2018-08-19T17:21:12.969Z,24.35
2018-08-19T17:23:43.974Z,24.29
2018-08-19T17:26:20.084Z,23.74
2018-08-19T17:28:51.286Z,23.55
2018-08-19T17:31:22.335Z,23.56
2018-08-19T17:33:53.223Z,23.40
2018-08-19T17:36:33.324Z,23.26
2018-08-19T17:39:05.221Z,23.07
2018-08-19T17:41:38.660Z,22.92
2018-08-19T17:44:09.451Z,22.94
2018-08-19T17:46:40.317Z,22.83
2018-08-19T17:49:19.094Z,22.74
2018-08-19T17:51:50.030Z,22.78
2018-08-19T17:54:25.849Z,22.62
2018-08-19T17:56:58.425Z,22.59
2018-08-19T17:59:29.417Z,22.49
2018-08-19T18:02:00.335Z,22.37
2018-08-19T18:04:38.482Z,22.24
2018-08-19T18:07:11.774Z,21.86
2018-08-19T18:09:47.634Z,21.65
2018-08-19T18:12:18.872Z,21.38
2018-08-19T18:14:49.770Z,21.27
2018-08-19T18:17:21.326Z,21.39
2018-08-19T18:19:52.233Z,21.38
2018-08-19T18:22:23.564Z,21.23
2018-08-19T18:25:01.400Z,21.06
2018-08-19T18:27:32.397Z,21.20
2018-08-19T18:30:03.290Z,20.99
2018-08-19T18:32:34.150Z,20.96
2018-08-19T18:35:05.252Z,20.92
2018-08-19T18:37:36.258Z,20.90
2018-08-19T18:40:07.267Z,20.87
2018-08-19T18:42:40.976Z,20.99
2018-08-19T18:45:13.189Z,20.83
2018-08-19T18:47:53.120Z,20.32
2018-08-19T18:50:25.473Z,20.29
2018-08-19T18:52:56.697Z,19.93
2018-08-19T18:55:27.505Z,20.01
2018-08-19T18:57:58.444Z,20.30
2018-08-19T19:00:30.196Z,20.38
2018-08-19T19:03:01.884Z,20.40
2018-08-19T19:05:37.455Z,20.36
2018-08-19T19:08:11.006Z,20.27
2018-08-19T19:10:50.565Z,20.23
2018-08-19T19:13:22.320Z,19.66
2018-08-19T19:15:53.182Z,19.62
2018-08-19T19:18:24.109Z,19.79
2018-08-19T19:21:00.531Z,19.89
2018-08-19T19:23:32.748Z,19.50
2018-08-19T19:26:05.282Z,19.25
2018-08-19T19:28:36.289Z,19.24
2018-08-19T19:31:12.377Z,19.28
2018-08-19T19:33:43.411Z,19.32
2018-08-19T19:36:18.545Z,19.36
2018-08-19T19:38:55.534Z,19.17
2018-08-19T19:41:28.568Z,19.25
2018-08-19T19:44:00.233Z,19.51
2018-08-19T19:46:31.332Z,19.58
2018-08-19T19:49:02.274Z,19.41
2018-08-19T19:51:33.052Z,19.40
2018-08-19T19:54:03.957Z,19.04
2018-08-19T19:56:35.005Z,18.43
2018-08-19T19:59:10.656Z,18.70
2018-08-19T20:01:46.440Z,18.91
2018-08-19T20:04:22.953Z,18.98
2018-08-19T20:06:58.870Z,18.40
2018-08-19T20:09:35.939Z,18.03
2018-08-19T20:12:16.988Z,18.03
2018-08-19T20:14:52.836Z,17.68
2018-08-19T20:17:28.603Z,17.46
2018-08-19T20:20:04.911Z,17.75
2018-08-19T20:22:40.736Z,17.80
2018-08-19T20:25:16.756Z,17.65
2018-08-19T20:27:56.595Z,17.61
2018-08-19T20:30:32.922Z,17.77
2018-08-19T20:33:17.245Z,17.71
2018-08-19T20:35:53.420Z,17.52
2018-08-19T20:38:29.482Z,17.57
2018-08-19T20:41:05.711Z,17.32
2018-08-19T20:43:41.628Z,17.45
2018-08-19T20:46:17.581Z,17.23
2018-08-19T20:48:53.350Z,17.08
2018-08-19T20:51:29.289Z,17.18
2018-08-19T20:54:05.108Z,16.94
2018-08-19T20:56:41.035Z,17.05
2018-08-19T20:59:22.630Z,17.11
2018-08-19T21:01:59.075Z,17.31
2018-08-19T21:04:34.960Z,17.21
2018-08-19T21:07:10.880Z,17.05
2018-08-19T21:09:46.818Z,16.95
2018-08-19T21:12:24.220Z,16.88
2018-08-19T21:15:04.477Z,16.85
2018-08-19T21:17:40.262Z,16.87
2018-08-19T21:20:16.181Z,16.86
2018-08-19T21:22:53.457Z,16.91
2018-08-19T21:25:29.214Z,16.47
2018-08-19T21:28:05.160Z,16.20
2018-08-19T21:30:41.136Z,16.26
2018-08-19T21:33:16.796Z,16.52
2018-08-19T21:35:55.869Z,16.67
2018-08-19T21:38:31.623Z,16.40
2018-08-19T21:41:07.383Z,16.37
2018-08-19T21:43:43.169Z,16.73
2018-08-19T21:46:19.029Z,16.65
2018-08-19T21:48:54.808Z,16.83
2018-08-19T21:51:30.548Z,17.14
2018-08-19T21:54:07.122Z,17.31
2018-08-19T21:56:43.031Z,17.36
2018-08-19T21:59:27.053Z,17.49
2018-08-19T22:02:02.830Z,17.45
2018-08-19T22:04:38.622Z,17.39
2018-08-19T22:07:14.555Z,17.47
2018-08-19T22:09:50.588Z,17.48
2018-08-19T22:12:26.460Z,17.38
2018-08-19T22:15:02.065Z,17.25
2018-08-19T22:17:37.812Z,17.02
2018-08-19T22:20:13.526Z,17.03
2018-08-19T22:22:50.349Z,16.95
2018-08-19T22:25:26.100Z,16.75
2018-08-19T22:28:02.088Z,16.68
2018-08-19T22:30:38.040Z,16.83
2018-08-19T22:33:13.963Z,16.81
2018-08-19T22:35:49.714Z,16.88
2018-08-19T22:38:31.571Z,16.94
2018-08-19T22:41:07.426Z,16.95
2018-08-19T22:43:43.177Z,17.03
2018-08-19T22:46:19.074Z,17.12
2018-08-19T22:48:55.964Z,17.30
2018-08-19T22:51:33.401Z,17.38
2018-08-19T22:54:09.270Z,17.53
2018-08-19T22:56:45.190Z,17.63
2018-08-19T22:59:20.912Z,17.53
2018-08-19T23:01:56.992Z,17.75
2018-08-19T23:04:32.845Z,17.87
2018-08-19T23:07:08.637Z,17.83
2018-08-19T23:09:44.457Z,17.85
2018-08-19T23:12:20.435Z,18.00
2018-08-19T23:15:06.862Z,17.40
2018-08-19T23:17:42.730Z,16.91
2018-08-19T23:20:18.482Z,16.68
2018-08-19T23:22:54.260Z,16.48
2018-08-19T23:25:30.026Z,16.47
2018-08-19T23:28:06.130Z,16.49
2018-08-19T23:30:41.730Z,16.76
2018-08-19T23:33:20.873Z,16.64
2018-08-19T23:35:56.722Z,16.58
2018-08-19T23:38:32.644Z,16.61
2018-08-19T23:41:08.396Z,16.59
2018-08-19T23:43:44.161Z,16.58
2018-08-19T23:46:20.061Z,16.66
2018-08-19T23:48:55.828Z,16.68
2018-08-19T23:51:32.161Z,16.71
2018-08-19T23:54:08.517Z,16.89
2018-08-19T23:56:44.436Z,17.06
2018-08-19T23:59:25.167Z,16.92
